createdAt,value
2022-08-02T00:30:30.494Z,0
2022-08-02T00:31:11.757Z,0
2022-08-02T00:31:52.308Z,0
2022-08-02T00:32:32.993Z,0
2022-08-02T00:37:57.312Z,0
2022-08-02T00:38:37.826Z,0
2022-08-02T00:39:33.397Z,0
2022-08-02T00:39:58.735Z,0
2022-08-02T00:40:39.244Z,0
2022-08-02T00:41:19.657Z,0
2022-08-02T00:42:00.144Z,0
2022-08-02T00:43:21.139Z,0
2022-08-02T00:44:01.634Z,0
2022-08-02T00:44:42.408Z,0
2022-08-02T00:52:07.936Z,0
2022-08-02T00:52:48.230Z,0
2022-08-02T00:53:28.729Z,0
2022-08-02T00:54:09.149Z,0
2022-08-02T00:54:49.635Z,0
2022-08-02T00:55:30.862Z,0
2022-08-02T00:56:10.634Z,0
2022-08-02T00:56:51.323Z,0
2022-08-02T00:57:31.634Z,0
2022-08-02T00:58:12.159Z,0
2022-08-02T00:58:52.660Z,0
2022-08-02T01:06:02.263Z,0
2022-08-02T01:06:18.255Z,0
2022-08-02T01:06:58.669Z,0
2022-08-02T01:07:39.174Z,0
2022-08-02T01:08:19.713Z,0
2022-08-02T01:09:00.110Z,0
2022-08-02T01:09:40.647Z,0
2022-08-02T01:10:21.193Z,0
2022-08-02T01:11:01.765Z,0
2022-08-02T01:11:42.242Z,0
2022-08-02T01:12:22.673Z,0
2022-08-02T01:18:27.386Z,0
2022-08-02T01:19:07.824Z,0
2022-08-02T01:19:48.308Z,0
2022-08-02T01:20:28.820Z,0
2022-08-02T01:21:09.299Z,0
2022-08-02T01:21:49.790Z,0
2022-08-02T01:22:58.379Z,0
2022-08-02T01:23:10.823Z,0
2022-08-02T01:23:51.344Z,0
2022-08-02T01:24:31.816Z,0
2022-08-02T01:25:12.325Z,0
2022-08-02T01:31:57.312Z,0
2022-08-02T01:32:37.758Z,0
2022-08-02T01:33:18.240Z,0
2022-08-02T01:33:58.745Z,0
2022-08-02T01:34:39.181Z,0
2022-08-02T01:35:19.697Z,0
2022-08-02T01:36:00.200Z,0
2022-08-02T01:36:40.681Z,0
2022-08-02T01:37:21.204Z,0
2022-08-02T01:38:01.699Z,0
2022-08-02T01:38:42.138Z,0
2022-08-02T01:39:26.574Z,0
2022-08-02T01:45:27.755Z,0
2022-08-02T01:46:08.162Z,0
2022-08-02T01:46:48.647Z,0
2022-08-02T01:47:29.127Z,0
2022-08-02T01:48:09.612Z,0
2022-08-02T01:48:50.192Z,0
2022-08-02T01:49:30.717Z,0
2022-08-02T01:50:11.145Z,0
2022-08-02T01:50:51.683Z,0
2022-08-02T01:51:32.731Z,0
2022-08-02T01:52:13.096Z,0
2022-08-02T01:58:57.388Z,0
2022-08-02T01:59:37.877Z,0
2022-08-02T02:00:18.350Z,0
2022-08-02T02:00:58.920Z,0
2022-08-02T02:01:39.412Z,0
2022-08-02T02:02:19.790Z,0
2022-08-02T02:03:00.282Z,0
2022-08-02T02:03:41.491Z,0
2022-08-02T02:04:21.233Z,0
2022-08-02T02:05:01.764Z,0
2022-08-02T02:05:42.247Z,0
2022-08-02T02:06:22.705Z,0
2022-08-02T02:13:07.696Z,0
2022-08-02T02:13:48.156Z,0
2022-08-02T02:14:28.678Z,0
2022-08-02T02:15:09.133Z,0
2022-08-02T02:15:49.664Z,0
2022-08-02T02:16:30.151Z,0
2022-08-02T02:17:50.420Z,0
2022-08-02T02:17:57.243Z,0
2022-08-02T02:18:31.790Z,0
2022-08-02T02:19:12.308Z,0
2022-08-02T02:26:37.773Z,0
2022-08-02T02:27:18.246Z,0
2022-08-02T02:30:32.019Z,0
2022-08-02T02:31:12.503Z,0
2022-08-02T02:31:52.954Z,0
2022-08-02T02:32:33.428Z,0
2022-08-02T02:33:13.871Z,0
2022-08-02T02:33:54.335Z,0
2022-08-02T02:34:34.832Z,0
2022-08-02T02:35:15.271Z,0
2022-08-02T02:35:55.754Z,0
2022-08-02T02:36:36.197Z,0
2022-08-02T02:37:16.657Z,0
2022-08-02T02:44:02.276Z,0
2022-08-02T02:44:42.800Z,0
2022-08-02T02:45:23.234Z,0
2022-08-02T02:46:03.691Z,0
2022-08-02T02:46:44.178Z,0
2022-08-02T02:47:41.193Z,0
2022-08-02T02:48:05.179Z,0
2022-08-02T02:49:26.154Z,0
2022-08-02T02:50:06.563Z,0
2022-08-02T02:57:31.909Z,0
2022-08-02T02:58:12.385Z,0
2022-08-02T02:58:52.862Z,0
2022-08-02T02:59:33.390Z,0
2022-08-02T03:00:13.882Z,0
2022-08-02T03:00:54.382Z,0
2022-08-02T03:01:35.950Z,0
2022-08-02T03:02:15.409Z,0
2022-08-02T03:02:55.815Z,0
2022-08-02T03:03:36.382Z,0
2022-08-02T03:11:42.066Z,0
2022-08-02T03:12:24.857Z,0
2022-08-02T03:13:03.016Z,0
2022-08-02T03:13:43.520Z,0
2022-08-02T03:14:23.978Z,0
2022-08-02T03:15:04.498Z,0
2022-08-02T03:15:45.004Z,0
2022-08-02T03:16:25.464Z,0
2022-08-02T03:17:05.945Z,0
2022-08-02T03:17:46.425Z,0
2022-08-02T03:18:26.874Z,0
2022-08-02T03:25:52.111Z,0
2022-08-02T03:26:32.587Z,0
2022-08-02T03:27:13.050Z,0
2022-08-02T03:27:53.521Z,0
2022-08-02T03:28:33.977Z,0
2022-08-02T03:29:54.932Z,4
2022-08-02T03:30:35.397Z,4
2022-08-02T03:31:15.868Z,4
2022-08-02T03:31:56.380Z,0
2022-08-02T03:32:36.865Z,0
2022-08-02T03:40:02.160Z,4
2022-08-02T03:40:42.610Z,8
2022-08-02T03:41:23.083Z,4
2022-08-02T03:42:03.604Z,8
2022-08-02T03:42:44.058Z,8
2022-08-02T03:43:24.517Z,8
2022-08-02T03:44:05.023Z,12
2022-08-02T03:44:45.477Z,12
2022-08-02T03:45:25.969Z,16
2022-08-02T03:46:06.459Z,16
2022-08-02T03:46:46.943Z,16
2022-08-02T03:53:31.739Z,32
2022-08-02T03:54:12.297Z,36
2022-08-02T03:54:52.693Z,32
2022-08-02T03:55:33.173Z,36
2022-08-02T03:56:13.648Z,40
2022-08-02T03:56:54.119Z,44
2022-08-02T03:57:34.588Z,40
2022-08-02T03:58:15.083Z,44
2022-08-02T03:58:55.597Z,48
2022-08-02T03:59:36.098Z,52
2022-08-02T04:00:16.575Z,56
2022-08-02T04:00:57.054Z,56
2022-08-02T04:08:33.135Z,96
2022-08-02T04:08:36.545Z,104
2022-08-02T04:09:02.846Z,104
2022-08-02T04:09:43.317Z,108
2022-08-02T04:10:23.809Z,116
2022-08-02T04:11:04.311Z,120
2022-08-02T04:11:44.789Z,128
2022-08-02T04:12:25.327Z,136
2022-08-02T04:13:05.820Z,144
2022-08-02T04:13:46.331Z,156
2022-08-02T04:14:26.817Z,164
2022-08-02T04:21:52.609Z,244
2022-08-02T04:22:32.652Z,256
2022-08-02T04:23:13.129Z,268
2022-08-02T04:23:53.609Z,276
2022-08-02T04:24:34.432Z,284
2022-08-02T04:25:15.559Z,292
2022-08-02T04:25:55.121Z,300
2022-08-02T04:26:35.542Z,308
2022-08-02T04:27:19.860Z,328
2022-08-02T04:28:15.952Z,344
2022-08-02T04:35:21.824Z,748
2022-08-02T04:36:02.317Z,772
2022-08-02T04:36:42.789Z,792
2022-08-02T04:37:23.244Z,772
2022-08-02T04:38:05.971Z,724
2022-08-02T04:38:44.221Z,676
2022-08-02T04:39:24.685Z,652
2022-08-02T04:40:05.141Z,640
2022-08-02T04:40:45.656Z,644
2022-08-02T04:41:26.135Z,648
2022-08-02T04:42:06.621Z,640
2022-08-02T04:49:08.290Z,640
2022-08-02T04:49:48.684Z,664
2022-08-02T04:50:29.158Z,712
2022-08-02T04:51:09.721Z,796
2022-08-02T04:51:50.206Z,896
2022-08-02T04:52:30.731Z,1056
2022-08-02T04:53:11.241Z,1216
2022-08-02T04:53:51.719Z,1376
2022-08-02T04:54:32.215Z,1632
2022-08-02T04:55:12.623Z,1952
2022-08-02T04:55:53.119Z,2504
2022-08-02T05:02:37.968Z,3492
2022-08-02T05:03:18.452Z,4304
2022-08-02T05:03:58.925Z,4628
2022-08-02T05:04:39.424Z,4760
2022-08-02T05:05:19.883Z,4580
2022-08-02T05:06:00.368Z,4612
2022-08-02T05:06:41.878Z,4652
2022-08-02T05:07:22.427Z,4864
2022-08-02T05:08:02.898Z,5160
2022-08-02T05:12:48.358Z,8584
2022-08-02T05:13:28.819Z,8940
2022-08-02T05:14:09.374Z,9060
2022-08-02T05:14:49.887Z,9300
2022-08-02T05:15:33.351Z,9748
2022-08-02T05:16:10.892Z,9656
2022-08-02T05:16:51.466Z,9936
2022-08-02T05:17:31.966Z,9832
2022-08-02T05:18:12.456Z,10148
2022-08-02T05:18:53.012Z,10064
2022-08-02T05:24:58.218Z,12192
2022-08-02T05:25:38.658Z,12608
2022-08-02T05:26:19.250Z,12576
2022-08-02T05:26:59.711Z,13024
2022-08-02T05:27:40.238Z,13088
2022-08-02T05:28:20.785Z,13536
2022-08-02T05:29:01.266Z,13856
2022-08-02T05:29:41.756Z,14240
2022-08-02T05:30:22.247Z,14432
2022-08-02T05:31:02.801Z,15072
2022-08-02T05:37:48.210Z,15104
2022-08-02T05:38:28.456Z,15712
2022-08-02T05:39:11.558Z,16288
2022-08-02T05:39:55.257Z,17984
2022-08-02T05:40:33.289Z,18112
2022-08-02T05:46:37.964Z,14400
2022-08-02T05:47:18.449Z,15936
2022-08-02T05:47:59.044Z,12616
2022-08-02T05:48:39.551Z,17792
2022-08-02T05:50:00.520Z,17664
2022-08-02T05:50:41.600Z,20608
2022-08-02T05:51:22.139Z,21312
2022-08-02T05:52:02.724Z,21280
2022-08-02T05:52:43.240Z,21248
2022-08-02T06:31:52.363Z,29664
2022-08-02T06:32:33.226Z,23776
2022-08-02T06:33:13.992Z,25760
2022-08-02T06:33:54.651Z,25664
2022-08-02T06:34:36.173Z,28416
2022-08-02T06:36:06.004Z,29312
2022-08-02T06:36:46.819Z,30496
2022-08-02T06:40:11.423Z,34624
2022-08-02T06:40:51.100Z,36128
2022-08-02T06:41:31.633Z,35008
2022-08-02T06:42:12.814Z,34720
2022-08-02T06:42:53.115Z,34688
2022-08-02T06:48:05.705Z,32416
2022-08-02T06:48:45.984Z,28928
2022-08-02T06:49:27.407Z,28256
2022-08-02T06:50:07.838Z,29760
2022-08-02T06:50:48.485Z,30784
2022-08-02T06:51:30.103Z,28480
2022-08-02T06:52:09.888Z,25888
2022-08-02T06:52:50.213Z,23360
2022-08-02T06:57:23.845Z,25024
2022-08-02T06:58:04.003Z,24352
2022-08-02T06:58:44.929Z,23520
2022-08-02T06:59:35.817Z,22784
2022-08-02T07:00:16.046Z,22432
2022-08-02T07:00:57.073Z,22656
2022-08-02T07:01:40.658Z,21952
2022-08-02T07:03:03.145Z,22400
2022-08-02T07:03:43.854Z,22272
2022-08-02T07:04:25.118Z,22048
2022-08-02T07:05:06.715Z,22496
2022-08-02T07:05:47.239Z,22176
2022-08-02T07:06:27.995Z,21376
2022-08-02T07:10:34.041Z,25984
2022-08-02T07:11:14.504Z,26720
2022-08-02T07:11:55.083Z,26688
2022-08-02T07:12:35.633Z,27360
2022-08-02T07:13:16.093Z,27488
2022-08-02T07:13:57.523Z,27072
2022-08-02T07:16:42.599Z,14896
2022-08-02T07:17:23.403Z,14348
2022-08-02T07:18:04.067Z,14332
2022-08-02T07:18:44.981Z,14188
2022-08-02T07:19:33.707Z,13316
2022-08-02T07:20:06.284Z,12000
2022-08-02T07:20:46.841Z,12680
2022-08-02T07:21:45.843Z,13832
2022-08-02T07:26:01.673Z,14224
2022-08-02T07:26:23.744Z,14168
2022-08-02T07:27:12.458Z,14088
2022-08-02T07:27:45.063Z,13636
2022-08-02T07:31:49.947Z,7048
2022-08-02T07:35:36.123Z,6612
2022-08-02T07:36:22.591Z,6624
2022-08-02T07:36:58.420Z,6708
2022-08-02T07:37:54.463Z,6800
2022-08-02T07:39:48.187Z,6068
2022-08-02T07:40:32.517Z,5996
2022-08-02T07:41:58.707Z,6008
2022-08-02T07:42:41.071Z,5920
2022-08-02T07:46:09.986Z,5140
2022-08-02T07:46:59.676Z,5052
2022-08-02T07:47:43.099Z,4992
2022-08-02T07:48:25.335Z,4900
2022-08-02T07:49:05.919Z,4904
2022-08-02T07:49:48.678Z,4904
2022-08-02T07:51:54.280Z,4556
2022-08-02T07:52:34.952Z,4468
2022-08-02T07:53:15.548Z,4408
2022-08-02T07:54:02.306Z,4484
2022-08-02T07:56:10.060Z,4276
2022-08-02T07:56:57.476Z,3968
2022-08-02T07:57:32.747Z,4248
2022-08-02T07:58:13.971Z,4268
2022-08-02T07:58:55.048Z,4172
2022-08-02T08:01:44.975Z,4200
2022-08-02T08:02:22.463Z,4168
2022-08-02T08:03:03.319Z,4128
2022-08-02T08:03:44.692Z,4096
2022-08-02T08:06:29.514Z,3900
2022-08-02T08:07:10.690Z,3852
2022-08-02T08:07:52.146Z,3820
2022-08-02T08:08:33.274Z,3776
2022-08-02T08:09:15.431Z,3732
2022-08-02T08:19:50.723Z,2948
2022-08-02T08:20:27.001Z,2916
2022-08-02T08:21:08.370Z,2884
2022-08-02T08:21:49.070Z,2856
2022-08-02T08:22:29.650Z,2816
2022-08-02T08:23:10.282Z,2792
2022-08-02T08:23:51.115Z,2756
2022-08-02T08:29:56.716Z,2748
2022-08-02T08:30:37.163Z,2820
2022-08-02T08:31:17.629Z,2956
2022-08-02T08:33:53.335Z,2820
2022-08-02T08:34:32.042Z,3060
2022-08-02T08:35:12.429Z,3084
2022-08-02T08:35:52.889Z,2868
2022-08-02T08:38:36.575Z,2740
2022-08-02T08:39:17.118Z,2796
2022-08-02T08:39:58.950Z,2784
2022-08-02T08:40:38.112Z,2412
2022-08-02T08:41:18.693Z,2208
2022-08-02T08:41:59.202Z,2136
2022-08-02T08:42:39.756Z,2072
2022-08-02T08:43:21.589Z,2088
2022-08-02T08:46:22.258Z,2596
2022-08-02T08:47:03.419Z,2592
2022-08-02T08:47:44.644Z,2720
2022-08-02T08:48:30.702Z,2664
2022-08-02T08:49:53.526Z,2640
2022-08-02T08:50:34.545Z,2608
2022-08-02T08:51:15.861Z,2628
2022-08-02T08:51:57.082Z,2660
2022-08-02T08:54:42.033Z,2456
2022-08-02T08:55:23.310Z,2532
2022-08-02T08:56:04.479Z,2516
2022-08-02T08:56:45.462Z,2520
2022-08-02T08:57:26.696Z,2540
2022-08-02T09:00:11.760Z,2620
2022-08-02T09:00:53.137Z,2736
2022-08-02T09:01:49.504Z,2736
2022-08-02T09:02:17.934Z,2700
2022-08-02T09:02:56.394Z,2668
2022-08-02T09:06:22.113Z,2496
2022-08-02T09:07:03.302Z,2512
2022-08-02T09:07:44.371Z,2464
2022-08-02T09:08:25.549Z,2480
2022-08-02T09:09:06.715Z,2496
2022-08-02T09:11:52.362Z,2580
2022-08-02T09:12:33.252Z,2520
2022-08-02T09:13:30.861Z,2152
2022-08-02T09:13:55.459Z,2172
2022-08-02T09:14:36.617Z,2232
2022-08-02T09:17:21.455Z,2608
2022-08-02T09:18:02.467Z,2528
2022-08-02T09:18:43.863Z,2608
2022-08-02T09:19:24.805Z,2568
2022-08-02T09:20:05.912Z,2612
2022-08-02T09:23:32.531Z,2364
2022-08-02T09:24:13.562Z,2164
2022-08-02T09:24:54.647Z,2100
2022-08-02T09:25:35.785Z,2164
2022-08-02T09:29:59.148Z,2052
2022-08-02T09:30:23.623Z,2136
2022-08-02T09:31:04.748Z,2152
2022-08-02T09:31:45.751Z,2072
2022-08-02T09:32:26.605Z,2092
2022-08-02T09:35:11.570Z,1828
2022-08-02T09:36:05.660Z,1700
2022-08-02T09:36:34.371Z,1580
2022-08-02T09:37:15.095Z,1464
2022-08-02T09:37:56.259Z,1352
2022-08-02T09:41:22.343Z,1236
2022-08-02T09:42:03.546Z,1352
2022-08-02T09:42:44.710Z,1428
2022-08-02T09:43:25.693Z,1436
2022-08-02T09:44:07.140Z,1548
2022-08-02T09:47:32.144Z,1680
2022-08-02T09:48:13.130Z,1712
2022-08-02T09:48:54.335Z,2172
2022-08-02T09:49:35.709Z,1888
2022-08-02T09:50:16.740Z,1992
2022-08-02T09:53:01.849Z,1860
2022-08-02T09:53:42.931Z,1820
2022-08-02T09:54:24.079Z,1824
2022-08-02T09:55:05.285Z,1856
2022-08-02T09:55:46.381Z,1848
2022-08-02T09:59:11.611Z,2288
2022-08-02T09:59:52.621Z,2044
2022-08-02T10:00:51.719Z,1952
2022-08-02T10:01:14.748Z,1972
2022-08-02T10:01:59.217Z,2200
2022-08-02T10:02:36.777Z,2180
2022-08-02T10:05:22.185Z,1652
2022-08-02T10:06:03.516Z,2112
2022-08-02T10:06:44.268Z,1880
2022-08-02T10:07:25.420Z,2092
2022-08-02T10:09:46.818Z,1964
2022-08-02T10:10:27.757Z,1908
2022-08-02T10:11:09.076Z,1680
2022-08-02T10:11:50.687Z,1640
2022-08-02T10:13:52.302Z,1692
2022-08-02T10:14:32.850Z,1928
2022-08-02T10:15:13.386Z,1944
2022-08-02T10:15:53.815Z,1968
2022-08-02T10:16:34.358Z,1992
2022-08-02T10:17:14.900Z,2024
2022-08-02T10:17:55.423Z,2060
2022-08-02T10:18:40.608Z,2084
2022-08-02T10:19:16.664Z,2100
2022-08-02T10:20:01.604Z,2096
2022-08-02T10:25:22.340Z,2012
2022-08-02T10:26:02.906Z,2056
2022-08-02T10:26:43.459Z,2108
2022-08-02T10:27:23.999Z,2160
2022-08-02T10:28:05.679Z,2192
2022-08-02T10:28:45.024Z,2232
2022-08-02T10:29:25.773Z,2264
2022-08-02T10:30:06.415Z,2316
2022-08-02T10:30:47.003Z,2320
2022-08-02T10:36:12.107Z,2360
2022-08-02T10:36:52.936Z,2332
2022-08-02T10:37:33.629Z,2344
2022-08-02T10:38:14.429Z,2312
2022-08-02T10:38:55.185Z,2272
2022-08-02T10:39:35.471Z,2264
2022-08-02T10:40:16.013Z,2264
2022-08-02T10:40:56.712Z,2220
2022-08-02T10:41:37.175Z,2180
2022-08-02T10:46:22.206Z,1604
2022-08-02T10:47:02.977Z,1588
2022-08-02T10:47:43.607Z,1916
2022-08-02T10:48:24.194Z,1696
2022-08-02T10:49:18.732Z,1952
2022-08-02T10:49:45.598Z,1940
2022-08-02T10:50:26.159Z,1884
2022-08-02T10:51:06.837Z,1880
2022-08-02T10:56:32.330Z,1800
2022-08-02T10:57:15.185Z,1832
2022-08-02T10:57:53.374Z,1860
2022-08-02T10:58:34.724Z,1892
2022-08-02T10:59:15.361Z,1760
2022-08-02T10:59:56.134Z,1976
2022-08-02T11:03:25.260Z,1660
2022-08-02T11:04:10.226Z,1684
2022-08-02T11:07:32.112Z,1872
2022-08-02T11:08:12.685Z,1880
2022-08-02T11:08:54.276Z,1948
2022-08-02T11:09:34.736Z,1968
2022-08-02T11:10:15.294Z,1956
2022-08-02T11:10:56.723Z,1944
2022-08-02T11:11:53.398Z,1904
2022-08-02T11:16:23.573Z,1876
2022-08-02T11:17:04.116Z,1888
2022-08-02T11:17:44.660Z,1856
2022-08-02T11:18:25.371Z,1808
2022-08-02T11:19:07.406Z,1800
2022-08-02T11:24:14.573Z,2052
2022-08-02T11:24:58.185Z,2076
2022-08-02T11:26:02.559Z,2088
2022-08-02T11:26:20.031Z,2088
2022-08-02T11:29:04.448Z,2040
2022-08-02T11:29:45.035Z,2008
2022-08-02T11:30:26.340Z,2008
2022-08-02T11:31:06.318Z,1932
2022-08-02T11:31:46.997Z,1872
2022-08-02T11:32:30.905Z,1864
2022-08-02T11:33:08.334Z,1836
2022-08-02T11:33:48.997Z,1488
2022-08-02T11:40:35.517Z,1596
2022-08-02T11:41:15.564Z,1764
2022-08-02T11:41:56.093Z,1868
2022-08-02T11:42:36.590Z,1856
2022-08-02T11:43:17.151Z,1868
2022-08-02T11:43:57.697Z,1860
2022-08-02T11:44:38.134Z,1904
2022-08-02T11:45:20.959Z,2016
2022-08-02T11:45:59.164Z,1760
2022-08-02T11:51:24.338Z,2056
2022-08-02T11:52:04.802Z,2128
2022-08-02T11:52:45.431Z,1820
2022-08-02T11:53:25.922Z,1784
2022-08-02T11:54:06.614Z,1764
2022-08-02T12:32:08.805Z,2380
2022-08-02T12:32:49.165Z,2372
2022-08-02T12:33:29.710Z,2372
2022-08-02T12:34:10.239Z,2364
2022-08-02T12:34:50.881Z,2344
2022-08-02T12:35:31.402Z,2332
2022-08-02T12:36:11.932Z,2332
2022-08-02T12:36:52.405Z,2336
2022-08-02T12:37:32.845Z,2336
2022-08-02T12:38:13.331Z,2344
2022-08-02T12:44:58.426Z,2436
2022-08-02T12:45:41.374Z,2428
2022-08-02T12:46:19.441Z,2432
2022-08-02T12:46:59.909Z,2448
2022-08-02T12:47:40.491Z,2420
2022-08-02T12:50:54.431Z,2212
2022-08-02T12:51:51.482Z,2172
2022-08-02T12:52:15.659Z,2140
2022-08-02T12:52:55.870Z,2096
2022-08-02T12:53:36.363Z,2064
2022-08-02T12:54:17.734Z,2020
2022-08-02T12:54:57.422Z,1980
2022-08-02T12:56:00.144Z,1948
2022-08-02T12:56:18.570Z,1920
2022-08-02T12:59:38.701Z,1876
2022-08-02T13:00:12.780Z,1900
2022-08-02T13:00:53.358Z,1904
2022-08-02T13:01:33.820Z,1912
2022-08-02T13:02:14.790Z,1912
2022-08-02T13:02:54.810Z,1900
2022-08-02T13:04:08.156Z,1916
2022-08-02T13:04:16.490Z,1936
2022-08-02T13:04:56.407Z,1960
2022-08-02T13:05:55.765Z,1976
2022-08-02T13:09:42.242Z,2104
2022-08-02T13:10:22.743Z,2136
2022-08-02T13:11:03.304Z,2152
2022-08-02T13:11:44.243Z,2072
2022-08-02T13:12:24.344Z,2176
2022-08-02T13:13:04.865Z,2212
2022-08-02T13:13:45.754Z,2268
2022-08-02T13:14:26.332Z,2244
2022-08-02T13:15:12.212Z,2224
2022-08-02T13:15:49.379Z,2252
2022-08-02T13:22:01.746Z,2184
2022-08-02T13:23:14.143Z,2004
2022-08-02T13:23:55.296Z,2192
2022-08-02T13:24:39.178Z,2236
2022-08-02T13:25:15.531Z,1692
2022-08-02T13:25:56.054Z,2032
2022-08-02T13:28:09.825Z,2264
2022-08-02T13:28:51.835Z,2296
2022-08-02T13:29:32.971Z,2284
2022-08-02T13:30:14.705Z,2292
2022-08-02T13:33:41.802Z,2116
2022-08-02T13:34:24.426Z,2152
2022-08-02T13:37:10.584Z,2012
2022-08-02T13:40:00.393Z,1860
2022-08-02T13:40:25.883Z,1808
2022-08-02T13:41:06.939Z,1860
2022-08-02T13:41:47.880Z,1876
2022-08-02T13:42:28.863Z,1852
2022-08-02T13:46:35.127Z,1916
2022-08-02T13:47:16.218Z,1896
2022-08-02T13:48:39.550Z,1908
2022-08-02T13:52:41.734Z,1860
2022-08-02T13:53:22.335Z,1836
2022-08-02T13:54:02.871Z,1836
2022-08-02T13:54:43.325Z,1864
2022-08-02T13:55:23.862Z,1860
2022-08-02T13:56:04.331Z,1868
2022-08-02T13:56:44.873Z,1888
2022-08-02T13:57:25.314Z,1824
2022-08-02T13:58:05.885Z,1844
2022-08-02T13:58:46.396Z,1892
2022-08-02T14:04:51.911Z,1568
2022-08-02T14:05:38.141Z,1812
2022-08-02T14:06:12.607Z,1560
2022-08-02T14:06:54.055Z,1720
2022-08-02T14:07:34.043Z,1728
2022-08-02T14:08:16.507Z,1692
2022-08-02T14:08:55.135Z,1632
2022-08-02T14:09:35.638Z,1608
2022-08-02T14:10:16.226Z,1584
2022-08-02T14:17:01.892Z,1524
2022-08-02T14:17:43.265Z,1544
2022-08-02T14:19:05.255Z,1512
2022-08-02T14:19:45.856Z,1488
2022-08-02T14:23:01.204Z,1392
2022-08-02T14:23:49.057Z,1408
2022-08-02T14:24:22.194Z,1212
2022-08-02T14:25:09.225Z,1396
2022-08-02T14:25:43.343Z,1372
2022-08-02T14:26:26.975Z,1396
2022-08-02T14:27:04.342Z,1332
2022-08-02T14:27:44.844Z,1264
2022-08-02T14:28:25.523Z,1316
2022-08-02T14:34:27.257Z,1220
2022-08-02T14:35:07.792Z,1228
2022-08-02T14:35:48.241Z,1224
2022-08-02T14:36:28.870Z,1192
2022-08-02T14:41:13.907Z,1184
2022-08-02T14:41:58.699Z,1180
2022-08-02T14:42:35.835Z,1204
2022-08-02T14:44:49.167Z,1184
2022-08-02T14:45:36.865Z,1216
2022-08-02T14:46:10.186Z,1196
2022-08-02T14:46:51.434Z,1220
2022-08-02T14:47:31.161Z,1248
2022-08-02T14:48:11.753Z,1236
2022-08-02T14:48:52.249Z,1276
2022-08-02T14:50:13.355Z,1296
2022-08-02T14:53:48.980Z,1312
2022-08-02T14:54:26.865Z,1188
2022-08-02T14:55:03.849Z,1288
2022-08-02T14:55:44.439Z,1164
2022-08-02T14:56:24.906Z,1056
2022-08-02T14:57:05.400Z,1036
2022-08-02T14:57:45.929Z,1152
2022-08-02T14:58:26.390Z,996
2022-08-02T14:59:06.947Z,964
2022-08-02T14:59:47.384Z,1024
2022-08-02T15:00:28.905Z,1188
2022-08-02T15:06:32.559Z,1164
2022-08-02T15:07:13.103Z,1172
2022-08-02T15:07:53.549Z,1176
2022-08-02T15:11:08.198Z,1224
2022-08-02T15:11:49.230Z,1228
2022-08-02T15:12:29.077Z,1228
2022-08-02T15:13:09.607Z,1228
2022-08-02T15:13:50.095Z,1228
2022-08-02T15:14:30.600Z,1220
2022-08-02T15:15:11.106Z,1008
2022-08-02T15:15:51.654Z,992
2022-08-02T15:16:47.527Z,988
2022-08-02T15:17:12.592Z,980
2022-08-02T15:23:57.513Z,1184
2022-08-02T15:24:38.003Z,1188
2022-08-02T15:25:18.520Z,1176
2022-08-02T15:25:59.079Z,1200
2022-08-02T15:26:39.565Z,1208
2022-08-02T15:27:20.054Z,1236
2022-08-02T15:28:00.547Z,1244
2022-08-02T15:28:41.621Z,1232
2022-08-02T15:29:22.174Z,1232
2022-08-02T15:30:02.627Z,1232
2022-08-02T15:36:47.840Z,1168
2022-08-02T15:37:30.786Z,1168
2022-08-02T15:38:08.902Z,1160
2022-08-02T15:38:49.421Z,1148
2022-08-02T15:39:29.901Z,1148
2022-08-02T15:40:10.430Z,1148
2022-08-02T15:40:51.300Z,1148
2022-08-02T15:41:31.655Z,1144
2022-08-02T15:42:12.476Z,1140
2022-08-02T15:42:52.805Z,1140
2022-08-02T15:48:57.988Z,1072
2022-08-02T15:49:41.474Z,1076
2022-08-02T15:50:19.094Z,1076
2022-08-02T15:50:59.634Z,1056
2022-08-02T15:51:40.120Z,1048
2022-08-02T15:52:20.675Z,1044
2022-08-02T15:53:02.121Z,1036
2022-08-02T15:56:24.170Z,944
2022-08-02T15:57:02.470Z,956
2022-08-02T15:57:43.803Z,960
2022-08-02T15:58:24.312Z,968
2022-08-02T15:59:04.859Z,848
2022-08-02T15:59:45.359Z,952
2022-08-02T16:00:25.871Z,960
2022-08-02T16:01:06.463Z,880
2022-08-02T16:01:47.933Z,956
2022-08-02T16:08:31.680Z,984
2022-08-02T16:09:52.680Z,984
2022-08-02T16:10:33.237Z,984
2022-08-02T16:11:13.702Z,984
2022-08-02T16:11:54.360Z,976
2022-08-02T16:12:34.837Z,968
2022-08-02T16:15:48.756Z,900
2022-08-02T16:16:29.494Z,912
2022-08-02T16:17:11.317Z,892
2022-08-02T16:17:53.872Z,892
2022-08-02T16:18:32.430Z,912
2022-08-02T16:21:19.546Z,892
2022-08-02T16:22:00.271Z,908
2022-08-02T16:22:43.028Z,904
2022-08-02T16:23:59.379Z,900
2022-08-02T16:24:03.825Z,892
2022-08-02T16:26:09.300Z,912
2022-08-02T16:26:51.569Z,916
2022-08-02T16:27:32.233Z,924
2022-08-02T16:28:12.722Z,912
2022-08-02T16:28:53.306Z,912
2022-08-02T16:29:33.776Z,876
2022-08-02T16:32:58.689Z,868
2022-08-02T16:33:39.133Z,868
2022-08-02T16:34:22.172Z,856
2022-08-02T16:35:07.353Z,848
2022-08-02T16:35:47.445Z,808
2022-08-02T16:36:23.394Z,840
2022-08-02T16:40:05.208Z,900
2022-08-02T16:40:45.756Z,900
2022-08-02T16:41:45.747Z,908
2022-08-02T16:42:06.729Z,908
2022-08-02T16:42:48.883Z,920
2022-08-02T16:43:28.032Z,920
2022-08-02T16:44:08.444Z,928
2022-08-02T16:44:53.380Z,916
2022-08-02T16:45:29.865Z,920
2022-08-02T16:48:55.516Z,912
2022-08-02T16:49:56.757Z,896
2022-08-02T16:50:17.332Z,880
2022-08-02T16:50:57.729Z,868
2022-08-02T16:51:38.496Z,856
2022-08-02T16:52:19.556Z,860
2022-08-02T16:52:59.553Z,860
2022-08-02T16:58:02.733Z,844
2022-08-02T16:58:44.846Z,860
2022-08-02T16:59:25.364Z,872
2022-08-02T17:00:03.683Z,876
2022-08-02T17:00:46.676Z,884
2022-08-02T17:01:27.665Z,888
2022-08-02T17:02:12.079Z,888
2022-08-02T17:02:46.907Z,888
2022-08-02T17:03:33.687Z,884
2022-08-02T17:04:06.668Z,880
2022-08-02T17:04:47.358Z,876
2022-08-02T17:10:52.010Z,800
2022-08-02T17:11:32.555Z,820
2022-08-02T17:12:15.923Z,824
2022-08-02T17:12:53.454Z,828
2022-08-02T17:13:34.290Z,824
2022-08-02T17:14:14.469Z,820
2022-08-02T17:14:55.933Z,808
2022-08-02T17:15:53.239Z,812
2022-08-02T17:16:20.122Z,812
2022-08-02T17:16:56.409Z,820
2022-08-02T17:17:40.547Z,816
2022-08-02T17:21:15.969Z,808
2022-08-02T17:21:56.469Z,804
2022-08-02T17:22:37.099Z,796
2022-08-02T17:23:17.979Z,788
2022-08-02T17:24:02.861Z,784
2022-08-02T17:24:39.120Z,780
2022-08-02T17:25:20.809Z,776
2022-08-02T17:30:47.060Z,760
2022-08-02T17:31:29.561Z,768
2022-08-02T17:32:09.260Z,764
2022-08-02T17:32:48.810Z,744
2022-08-02T17:33:29.422Z,732
2022-08-02T17:34:09.921Z,728
2022-08-02T17:36:38.008Z,736
2022-08-02T17:37:18.356Z,732
2022-08-02T17:37:59.985Z,728
2022-08-02T17:38:50.079Z,724
2022-08-02T17:39:19.752Z,720
2022-08-02T17:40:00.321Z,716
2022-08-02T17:40:40.812Z,708
2022-08-02T17:41:23.707Z,704
2022-08-02T17:42:01.796Z,700
2022-08-02T17:42:42.336Z,700
2022-08-02T17:43:22.822Z,692
2022-08-02T17:49:28.102Z,660
2022-08-02T17:50:08.728Z,656
2022-08-02T17:50:49.045Z,648
2022-08-02T17:51:33.366Z,644
2022-08-02T17:52:16.319Z,640
2022-08-02T17:52:53.414Z,636
2022-08-02T17:53:35.471Z,628
2022-08-02T18:34:28.689Z,336
2022-08-02T18:35:09.147Z,328
2022-08-02T18:35:49.642Z,324
2022-08-02T18:36:30.096Z,320
2022-08-02T18:37:10.569Z,312
2022-08-02T18:37:57.115Z,308
2022-08-02T18:38:31.555Z,304
2022-08-02T18:39:12.041Z,300
2022-08-02T18:39:52.512Z,296
2022-08-02T18:40:32.979Z,292
2022-08-02T18:47:58.417Z,236
2022-08-02T18:48:38.948Z,228
2022-08-02T18:49:19.497Z,224
2022-08-02T18:49:59.962Z,220
2022-08-02T18:50:40.427Z,216
2022-08-02T18:51:20.986Z,208
2022-08-02T18:52:01.509Z,204
2022-08-02T18:52:41.987Z,196
2022-08-02T18:53:28.150Z,192
2022-08-02T18:57:04.095Z,164
2022-08-02T18:58:02.432Z,160
2022-08-02T18:58:24.342Z,156
2022-08-02T18:59:04.807Z,152
2022-08-02T18:59:45.280Z,148
2022-08-02T19:00:26.407Z,140
2022-08-02T19:01:14.975Z,140
2022-08-02T19:01:50.378Z,132
2022-08-02T19:02:28.667Z,128
2022-08-02T19:05:54.249Z,108
2022-08-02T19:06:34.278Z,100
2022-08-02T19:07:17.035Z,96
2022-08-02T19:07:57.350Z,96